Time;durP1;ratioP1;P1;durP2;ratioP2;P2;SDS_P1;SDS_P2;PMS_P1;PMS_P2;Temp;Humidity;BMP_temperature;BMP_pressure;BME280_temperature;BME280_humidity;BME280_pressure;Samples;Min_cycle;Max_cycle;Signal;HPM_P1;HPM_P2
2021/12/26 00:00:12;;;;;;;12.07;2.80;;;;;;;;;;4988859;28;20644;-74
2021/12/26 00:02:38;;;;;;;5.80;2.00;;;;;;;;;;5004698;28;20263;-74
2021/12/26 00:05:04;;;;;;;13.40;2.73;;;;;;;;;;4990326;28;20209;-74
2021/12/26 00:07:29;;;;;;;24.67;2.77;;;;;;;;;;4999285;28;20193;-74
2021/12/26 00:09:54;;;;;;;14.53;3.53;;;;;;;;;;5000960;28;20185;-74
2021/12/26 00:12:19;;;;;;;12.67;2.70;;;;;;;;;;4995576;28;20180;-74
2021/12/26 00:14:45;;;;;;;9.90;2.20;;;;;;;;;;4993751;28;20190;-74
2021/12/26 00:17:10;;;;;;;10.83;2.77;;;;;;;;;;4995708;28;20207;-74
2021/12/26 00:19:35;;;;;;;12.97;2.80;;;;;;;;;;4993848;28;20183;-74
2021/12/26 00:22:00;;;;;;;7.00;2.30;;;;;;;;;;4994450;28;20245;-74
2021/12/26 00:24:25;;;;;;;9.90;3.10;;;;;;;;;;4994433;28;20503;-74
2021/12/26 00:26:51;;;;;;;13.73;3.17;;;;;;;;;;4993344;28;20263;-74
2021/12/26 00:29:16;;;;;;;8.03;2.83;;;;;;;;;;4998613;28;20214;-74
2021/12/26 00:31:41;;;;;;;9.47;2.90;;;;;;;;;;4993414;28;20184;-74
2021/12/26 00:34:06;;;;;;;7.33;2.07;;;;;;;;;;4994755;28;20187;-74
2021/12/26 00:36:31;;;;;;;9.60;2.13;;;;;;;;;;4991428;28;20188;-74
2021/12/26 00:38:57;;;;;;;6.83;2.20;;;;;;;;;;4997488;28;20209;-74
2021/12/26 00:41:22;;;;;;;8.43;2.57;;;;;;;;;;4995329;28;20287;-74
2021/12/26 00:43:47;;;;;;;13.77;3.10;;;;;;;;;;4992348;28;20229;-74
2021/12/26 00:46:13;;;;;;;5.13;2.30;;;;;;;;;;4997621;28;20172;-74
2021/12/26 00:48:38;;;;;;;9.10;2.10;;;;;;;;;;4993024;28;20244;-74
2021/12/26 00:51:03;;;;;;;4.37;2.30;;;;;;;;;;4994610;28;20175;-74
2021/12/26 00:53:29;;;;;;;9.27;2.30;;;;;;;;;;4994452;28;20215;-74
2021/12/26 00:55:54;;;;;;;8.37;3.47;;;;;;;;;;4992301;28;20242;-74
2021/12/26 00:58:19;;;;;;;5.50;2.30;;;;;;;;;;4992032;28;20182;-74
2021/12/26 01:00:45;;;;;;;12.03;2.27;;;;;;;;;;4993213;28;20181;-74
2021/12/26 01:03:11;;;;;;;6.53;2.20;;;;;;;;;;4998860;28;20191;-74
2021/12/26 01:05:39;;;;;;;10.33;2.53;;;;;;;;;;4993519;28;20208;-74
2021/12/26 01:08:05;;;;;;;10.53;3.10;;;;;;;;;;4992430;28;20423;-74
2021/12/26 01:10:36;;;;;;;15.50;2.50;;;;;;;;;;4994035;28;20239;-74
2021/12/26 01:13:11;;;;;;;13.73;2.80;;;;;;;;;;4986491;28;20173;-74
2021/12/26 01:15:37;;;;;;;9.40;2.37;;;;;;;;;;4992330;28;20183;-74
2021/12/26 01:18:02;;;;;;;4.83;1.83;;;;;;;;;;4994180;28;20274;-74
2021/12/26 01:20:57;;;;;;;9.50;2.10;;;;;;;;;;4991679;28;20252;-74
2021/12/26 01:23:17;;;;;;;6.53;1.77;;;;;;;;;;4994050;28;20197;-74
2021/12/26 01:25:42;;;;;;;6.57;2.37;;;;;;;;;;4994313;28;20243;-74
2021/12/26 01:28:07;;;;;;;4.33;2.33;;;;;;;;;;4993333;28;20176;-74
2021/12/26 01:30:33;;;;;;;3.97;2.07;;;;;;;;;;4996033;28;20238;-74
2021/12/26 01:32:58;;;;;;;5.67;2.30;;;;;;;;;;4993529;28;20207;-74
2021/12/26 01:35:24;;;;;;;3.03;2.40;;;;;;;;;;4990938;28;20209;-74
2021/12/26 01:37:49;;;;;;;5.03;1.87;;;;;;;;;;4994142;28;20277;-74
2021/12/26 01:40:15;;;;;;;5.80;2.10;;;;;;;;;;4994094;28;20204;-74
2021/12/26 01:42:40;;;;;;;9.30;2.40;;;;;;;;;;4993701;28;20206;-74
2021/12/26 01:45:07;;;;;;;6.77;2.20;;;;;;;;;;4989118;28;20226;-74
2021/12/26 01:47:33;;;;;;;4.60;1.97;;;;;;;;;;4998571;28;20275;-74
2021/12/26 01:49:58;;;;;;;15.60;2.43;;;;;;;;;;4995635;28;20235;-74
2021/12/26 01:52:23;;;;;;;11.07;2.20;;;;;;;;;;4996995;28;20176;-73
2021/12/26 01:55:00;;;;;;;10.47;2.20;;;;;;;;;;4991314;28;20184;-74
2021/12/26 01:57:25;;;;;;;8.73;2.03;;;;;;;;;;4992737;28;20188;-74
2021/12/26 01:59:50;;;;;;;17.93;3.00;;;;;;;;;;4991966;28;20196;-74
2021/12/26 02:02:15;;;;;;;16.37;2.17;;;;;;;;;;4993175;28;20616;-74
2021/12/26 02:04:43;;;;;;;14.03;2.23;;;;;;;;;;4992263;28;20229;-74
2021/12/26 02:07:09;;;;;;;8.67;2.37;;;;;;;;;;4989466;28;20173;-73
2021/12/26 02:09:34;;;;;;;9.70;2.13;;;;;;;;;;4994755;28;20183;-74
2021/12/26 02:12:00;;;;;;;8.93;2.33;;;;;;;;;;4994115;28;20178;-74
2021/12/26 02:14:25;;;;;;;12.67;2.43;;;;;;;;;;4991168;28;20184;-74
2021/12/26 02:16:51;;;;;;;8.00;2.53;;;;;;;;;;4992569;28;20191;-74
2021/12/26 02:19:16;;;;;;;9.07;2.43;;;;;;;;;;4992378;28;20184;-74
2021/12/26 02:29:42;;;;;;;5.03;2.23;;;;;;;;;;4998277;28;20280;-74
2021/12/26 02:32:07;;;;;;;8.60;2.73;;;;;;;;;;4994891;28;20199;-74
2021/12/26 02:34:33;;;;;;;4.17;2.00;;;;;;;;;;4996630;28;20187;-74
2021/12/26 02:36:58;;;;;;;5.83;2.30;;;;;;;;;;4999025;28;20184;-74
2021/12/26 02:39:23;;;;;;;7.20;2.07;;;;;;;;;;4990707;28;20184;-74
2021/12/26 02:41:48;;;;;;;14.43;2.20;;;;;;;;;;4995171;28;20191;-74
2021/12/26 02:44:14;;;;;;;9.37;2.20;;;;;;;;;;4990432;28;20230;-74
2021/12/26 02:46:40;;;;;;;8.97;2.53;;;;;;;;;;4995515;28;20183;-74
2021/12/26 02:49:06;;;;;;;3.37;2.03;;;;;;;;;;4996501;28;20244;-74
2021/12/26 02:51:31;;;;;;;11.00;2.10;;;;;;;;;;4995358;28;20172;-74
2021/12/26 02:53:56;;;;;;;7.83;2.13;;;;;;;;;;4992936;28;20211;-74
2021/12/26 02:56:21;;;;;;;6.00;2.20;;;;;;;;;;4991411;28;20188;-74
2021/12/26 02:58:47;;;;;;;9.60;1.93;;;;;;;;;;4989337;28;20188;-74
2021/12/26 03:01:14;;;;;;;15.13;2.40;;;;;;;;;;4994211;28;20188;-74
2021/12/26 03:03:39;;;;;;;8.97;2.10;;;;;;;;;;4994523;28;20291;-74
2021/12/26 03:06:10;;;;;;;11.07;2.03;;;;;;;;;;4991494;28;20207;-74
2021/12/26 03:08:35;;;;;;;7.83;2.00;;;;;;;;;;4991131;28;20176;-74
2021/12/26 03:11:00;;;;;;;11.73;2.00;;;;;;;;;;4993820;28;20184;-74
2021/12/26 03:13:26;;;;;;;9.30;2.70;;;;;;;;;;4994418;28;20187;-73
2021/12/26 03:15:51;;;;;;;9.03;2.23;;;;;;;;;;4993675;28;20172;-74
2021/12/26 03:18:17;;;;;;;5.63;2.17;;;;;;;;;;4991669;28;20195;-74
2021/12/26 03:20:44;;;;;;;7.57;2.70;;;;;;;;;;4991406;28;20182;-74
2021/12/26 03:23:11;;;;;;;13.70;2.53;;;;;;;;;;4987844;28;20184;-74
2021/12/26 03:25:36;;;;;;;7.50;2.33;;;;;;;;;;4989462;28;20207;-74
2021/12/26 03:28:03;;;;;;;11.80;2.60;;;;;;;;;;4989273;28;20181;-74
2021/12/26 03:30:29;;;;;;;14.80;2.77;;;;;;;;;;4988703;28;20180;-74
2021/12/26 03:32:54;;;;;;;8.60;2.47;;;;;;;;;;4990174;28;20184;-74
2021/12/26 03:35:22;;;;;;;6.77;2.77;;;;;;;;;;4991262;28;20184;-74
2021/12/26 03:37:47;;;;;;;5.93;2.40;;;;;;;;;;4989510;28;20376;-74
2021/12/26 03:40:12;;;;;;;7.50;2.57;;;;;;;;;;5000764;28;20599;-74
2021/12/26 03:42:38;;;;;;;7.07;2.30;;;;;;;;;;4991853;28;20204;-74
2021/12/26 03:45:04;;;;;;;12.50;2.80;;;;;;;;;;4997127;28;20323;-74
2021/12/26 03:47:31;;;;;;;13.63;2.47;;;;;;;;;;4990679;28;20247;-73
2021/12/26 03:49:56;;;;;;;5.20;2.47;;;;;;;;;;4993962;28;20295;-74
2021/12/26 03:52:22;;;;;;;9.27;1.93;;;;;;;;;;4994282;28;20183;-74
2021/12/26 03:54:48;;;;;;;9.83;2.40;;;;;;;;;;4990183;28;20192;-74
2021/12/26 03:57:13;;;;;;;10.77;2.50;;;;;;;;;;4992908;28;20175;-73
2021/12/26 03:59:38;;;;;;;6.27;2.53;;;;;;;;;;4993479;28;20183;-74
2021/12/26 04:02:04;;;;;;;4.30;2.33;;;;;;;;;;4990481;28;20184;-74
2021/12/26 04:04:29;;;;;;;10.97;3.47;;;;;;;;;;4993297;28;20295;-73
2021/12/26 04:06:54;;;;;;;6.63;2.60;;;;;;;;;;4992761;28;20184;-74
2021/12/26 04:09:19;;;;;;;9.20;2.27;;;;;;;;;;4989318;28;20180;-74
2021/12/26 04:11:45;;;;;;;7.77;2.87;;;;;;;;;;4989378;28;20172;-74
2021/12/26 04:14:11;;;;;;;16.50;3.13;;;;;;;;;;4989584;28;20188;-73
2021/12/26 04:16:37;;;;;;;8.20;2.70;;;;;;;;;;4991043;28;20234;-74
2021/12/26 04:19:02;;;;;;;12.47;2.60;;;;;;;;;;4989895;28;20181;-74
2021/12/26 04:21:27;;;;;;;9.07;3.00;;;;;;;;;;4989675;28;20270;-74
2021/12/26 04:23:53;;;;;;;5.73;2.60;;;;;;;;;;4988784;28;20227;-74
2021/12/26 04:26:18;;;;;;;17.83;2.80;;;;;;;;;;4991122;28;20234;-74
2021/12/26 04:28:43;;;;;;;11.00;2.80;;;;;;;;;;4996094;28;20171;-74
2021/12/26 04:31:08;;;;;;;19.20;2.60;;;;;;;;;;4990197;28;20189;-73
2021/12/26 04:33:34;;;;;;;11.93;3.27;;;;;;;;;;4990007;28;20180;-73
2021/12/26 04:35:59;;;;;;;11.13;3.00;;;;;;;;;;4991028;28;20193;-74
2021/12/26 04:38:27;;;;;;;12.20;3.10;;;;;;;;;;4990934;28;20176;-74
2021/12/26 04:40:52;;;;;;;11.20;2.80;;;;;;;;;;4992740;28;20210;-74
2021/12/26 04:43:20;;;;;;;13.57;2.67;;;;;;;;;;4991097;28;20207;-74
2021/12/26 04:45:46;;;;;;;10.20;2.80;;;;;;;;;;4994946;28;20234;-74
2021/12/26 04:48:11;;;;;;;8.43;2.70;;;;;;;;;;4991419;28;20200;-73
2021/12/26 04:50:36;;;;;;;6.83;2.70;;;;;;;;;;4992852;28;20179;-74
2021/12/26 04:53:01;;;;;;;10.03;2.67;;;;;;;;;;4994575;28;20172;-74
2021/12/26 04:55:28;;;;;;;17.07;3.20;;;;;;;;;;4995855;28;20189;-74
2021/12/26 04:57:53;;;;;;;7.50;3.23;;;;;;;;;;5011310;28;20184;-74
2021/12/26 05:00:20;;;;;;;11.90;2.80;;;;;;;;;;4992421;28;20188;-74
2021/12/26 05:02:46;;;;;;;10.77;2.60;;;;;;;;;;4994092;28;20184;-73
2021/12/26 05:05:11;;;;;;;10.47;3.43;;;;;;;;;;4995291;28;20196;-74
2021/12/26 05:07:38;;;;;;;14.60;2.97;;;;;;;;;;4994278;28;20188;-74
2021/12/26 05:10:04;;;;;;;7.47;2.70;;;;;;;;;;4993645;28;20176;-74
2021/12/26 05:12:30;;;;;;;5.23;2.70;;;;;;;;;;4996446;28;20243;-73
2021/12/26 05:14:55;;;;;;;10.13;3.10;;;;;;;;;;4991145;28;20180;-73
2021/12/26 05:17:20;;;;;;;6.17;3.37;;;;;;;;;;4992649;28;20199;-74
2021/12/26 05:19:45;;;;;;;4.13;2.77;;;;;;;;;;4994878;28;20265;-74
2021/12/26 05:22:10;;;;;;;12.70;3.30;;;;;;;;;;4997485;28;20503;-74
2021/12/26 05:24:36;;;;;;;12.40;3.13;;;;;;;;;;4994540;28;20208;-74
2021/12/26 05:27:01;;;;;;;5.87;2.90;;;;;;;;;;4993264;28;20168;-74
2021/12/26 05:29:26;;;;;;;12.90;3.27;;;;;;;;;;4996048;28;20180;-74
2021/12/26 05:31:52;;;;;;;11.43;3.67;;;;;;;;;;4992328;28;20180;-74
2021/12/26 05:34:18;;;;;;;6.70;3.00;;;;;;;;;;4992684;28;20270;-74
2021/12/26 05:36:43;;;;;;;8.20;2.90;;;;;;;;;;4994428;28;20188;-74
2021/12/26 05:39:08;;;;;;;7.10;3.20;;;;;;;;;;4994863;28;20205;-74
2021/12/26 05:41:34;;;;;;;7.40;2.73;;;;;;;;;;4991741;28;20180;-74
2021/12/26 05:43:59;;;;;;;6.73;2.33;;;;;;;;;;4997937;28;20297;-74
2021/12/26 05:46:24;;;;;;;9.50;2.73;;;;;;;;;;4995509;28;20176;-73
2021/12/26 05:48:50;;;;;;;5.97;3.13;;;;;;;;;;4996854;28;20184;-74
2021/12/26 05:51:16;;;;;;;4.73;2.50;;;;;;;;;;4995598;28;20183;-74
2021/12/26 05:53:41;;;;;;;5.37;2.97;;;;;;;;;;4999264;28;20176;-74
2021/12/26 05:56:06;;;;;;;9.53;2.60;;;;;;;;;;4992343;28;20255;-74
2021/12/26 05:58:31;;;;;;;9.50;3.13;;;;;;;;;;4995333;28;20230;-74
2021/12/26 06:00:57;;;;;;;4.37;2.83;;;;;;;;;;4995401;28;20224;-74
2021/12/26 06:03:22;;;;;;;6.53;2.80;;;;;;;;;;4994723;28;20205;-74
2021/12/26 06:05:47;;;;;;;4.87;2.97;;;;;;;;;;4992453;28;20208;-74
2021/12/26 06:08:12;;;;;;;7.47;3.67;;;;;;;;;;4996679;28;20184;-74
2021/12/26 06:10:37;;;;;;;4.87;2.63;;;;;;;;;;4994797;28;20188;-74
2021/12/26 06:13:03;;;;;;;8.70;3.20;;;;;;;;;;4995857;28;20184;-74
2021/12/26 06:15:28;;;;;;;3.83;2.67;;;;;;;;;;4991231;28;20219;-74
2021/12/26 06:17:53;;;;;;;5.57;3.23;;;;;;;;;;4991324;28;20180;-74
2021/12/26 06:20:18;;;;;;;5.50;4.53;;;;;;;;;;4991182;28;20590;-74
2021/12/26 06:22:44;;;;;;;6.00;3.87;;;;;;;;;;4990936;28;20189;-74
2021/12/26 06:25:11;;;;;;;5.00;3.53;;;;;;;;;;4992600;28;20214;-74
2021/12/26 06:27:36;;;;;;;5.13;3.60;;;;;;;;;;4996140;28;20267;-74
2021/12/26 06:30:03;;;;;;;5.63;3.07;;;;;;;;;;4993874;28;20260;-74
2021/12/26 06:32:28;;;;;;;3.93;2.57;;;;;;;;;;4990480;28;20191;-74
2021/12/26 06:34:53;;;;;;;3.33;2.80;;;;;;;;;;4990842;28;20192;-74
2021/12/26 06:37:18;;;;;;;5.15;3.28;;;;;;;;;;4989619;28;20188;-74
2021/12/26 06:39:43;;;;;;;3.77;2.70;;;;;;;;;;4995063;28;20196;-74
2021/12/26 06:42:09;;;;;;;4.97;3.27;;;;;;;;;;4991752;28;20208;-73
2021/12/26 06:44:34;;;;;;;6.60;4.00;;;;;;;;;;4995139;28;20231;-73
2021/12/26 06:46:59;;;;;;;7.23;4.53;;;;;;;;;;4991157;28;20183;-74
2021/12/26 06:49:24;;;;;;;4.83;3.47;;;;;;;;;;4989298;28;20180;-74
2021/12/26 06:51:50;;;;;;;5.73;3.30;;;;;;;;;;4992510;28;20185;-74
2021/12/26 06:54:15;;;;;;;4.77;4.27;;;;;;;;;;4992983;28;20172;-74
2021/12/26 06:56:40;;;;;;;7.83;6.00;;;;;;;;;;4988199;28;20179;-74
2021/12/26 06:59:05;;;;;;;5.00;4.00;;;;;;;;;;4988735;28;20252;-74
2021/12/26 07:01:32;;;;;;;5.03;3.70;;;;;;;;;;4994413;28;20234;-74
2021/12/26 07:03:57;;;;;;;4.10;3.73;;;;;;;;;;4990590;28;20200;-74
2021/12/26 07:06:23;;;;;;;5.93;4.07;;;;;;;;;;4990989;28;20237;-74
2021/12/26 07:08:48;;;;;;;6.73;4.13;;;;;;;;;;5006401;28;20182;-74
2021/12/26 07:11:14;;;;;;;7.50;6.57;;;;;;;;;;4993100;28;20192;-74
2021/12/26 07:13:39;;;;;;;5.57;4.60;;;;;;;;;;4989571;28;20190;-73
2021/12/26 07:16:04;;;;;;;7.40;6.40;;;;;;;;;;4990957;28;20267;-74
2021/12/26 07:18:29;;;;;;;6.10;5.33;;;;;;;;;;4993280;28;20194;-74
2021/12/26 07:20:55;;;;;;;4.43;3.90;;;;;;;;;;4991112;28;20176;-74
2021/12/26 07:23:20;;;;;;;8.50;4.93;;;;;;;;;;4992849;28;20238;-74
2021/12/26 07:25:45;;;;;;;7.57;6.87;;;;;;;;;;4993011;28;20203;-74
2021/12/26 07:28:10;;;;;;;8.97;8.17;;;;;;;;;;4995563;28;20209;-73
2021/12/26 07:30:36;;;;;;;7.70;7.00;;;;;;;;;;4987833;28;20257;-73
2021/12/26 07:33:01;;;;;;;6.47;5.73;;;;;;;;;;4993964;28;20174;-74
2021/12/26 07:35:27;;;;;;;5.40;4.87;;;;;;;;;;4989685;28;20184;-73
2021/12/26 07:37:53;;;;;;;5.17;3.70;;;;;;;;;;4992862;28;20238;-74
2021/12/26 07:40:18;;;;;;;4.40;3.40;;;;;;;;;;4991471;28;20184;-74
2021/12/26 07:42:44;;;;;;;7.73;4.83;;;;;;;;;;4991541;28;20232;-74
2021/12/26 07:45:09;;;;;;;4.20;3.30;;;;;;;;;;4991923;28;20224;-73
2021/12/26 07:47:35;;;;;;;4.30;3.90;;;;;;;;;;4992039;28;20186;-74
2021/12/26 07:50:00;;;;;;;5.27;4.77;;;;;;;;;;4994601;28;20180;-74
2021/12/26 07:52:30;;;;;;;6.17;5.40;;;;;;;;;;4990883;28;20181;-74
2021/12/26 07:54:55;;;;;;;7.33;4.87;;;;;;;;;;4990625;28;20180;-74
2021/12/26 07:57:21;;;;;;;5.17;4.33;;;;;;;;;;4991065;28;20187;-74
2021/12/26 07:59:46;;;;;;;6.13;4.63;;;;;;;;;;4992103;28;20196;-74
2021/12/26 08:02:15;;;;;;;4.90;4.40;;;;;;;;;;4993243;28;20187;-74
2021/12/26 08:04:43;;;;;;;6.83;5.60;;;;;;;;;;4989394;28;20216;-74
2021/12/26 08:07:08;;;;;;;7.43;4.07;;;;;;;;;;4991059;28;20181;-74
2021/12/26 08:09:33;;;;;;;6.93;4.50;;;;;;;;;;4992445;28;20181;-74
2021/12/26 08:11:58;;;;;;;5.87;4.10;;;;;;;;;;4989919;28;20204;-74
2021/12/26 08:14:23;;;;;;;6.67;5.70;;;;;;;;;;4987563;28;20270;-74
2021/12/26 08:16:49;;;;;;;11.63;8.27;;;;;;;;;;4990739;28;20180;-74
2021/12/26 08:19:14;;;;;;;11.33;9.00;;;;;;;;;;4989382;28;20275;-74
2021/12/26 08:21:39;;;;;;;6.37;5.70;;;;;;;;;;4992831;28;20270;-74
2021/12/26 08:24:04;;;;;;;8.33;5.03;;;;;;;;;;4993449;28;20207;-74
2021/12/26 08:26:32;;;;;;;7.43;6.13;;;;;;;;;;4995240;28;20187;-73
2021/12/26 08:28:57;;;;;;;5.87;4.87;;;;;;;;;;4997433;28;20172;-74
2021/12/26 08:31:22;;;;;;;5.37;4.20;;;;;;;;;;4999739;28;20246;-74
2021/12/26 08:33:48;;;;;;;6.90;5.00;;;;;;;;;;4996193;28;20180;-74
2021/12/26 08:36:13;;;;;;;6.83;5.40;;;;;;;;;;4991336;28;20186;-74
2021/12/26 08:38:39;;;;;;;11.63;8.47;;;;;;;;;;4996441;28;20185;-73
2021/12/26 08:41:04;;;;;;;15.80;12.40;;;;;;;;;;4992571;28;20183;-74
2021/12/26 08:43:29;;;;;;;11.07;8.47;;;;;;;;;;4997653;28;20235;-74
2021/12/26 08:45:54;;;;;;;8.83;6.90;;;;;;;;;;4993153;28;20254;-74
2021/12/26 08:48:20;;;;;;;11.07;8.87;;;;;;;;;;4992784;28;20184;-73
2021/12/26 08:50:45;;;;;;;9.37;6.20;;;;;;;;;;4993020;28;20177;-74
2021/12/26 08:53:10;;;;;;;8.37;6.73;;;;;;;;;;4994482;28;20167;-74
2021/12/26 08:55:36;;;;;;;7.47;4.67;;;;;;;;;;4992816;28;20176;-74
2021/12/26 08:58:01;;;;;;;8.13;5.67;;;;;;;;;;4992934;28;20188;-74
2021/12/26 09:00:27;;;;;;;9.20;5.57;;;;;;;;;;4997613;28;20191;-74
2021/12/26 09:02:52;;;;;;;9.17;5.60;;;;;;;;;;4993279;28;20188;-74
2021/12/26 09:05:18;;;;;;;7.77;5.20;;;;;;;;;;4992496;28;20204;-73
2021/12/26 09:07:43;;;;;;;7.57;4.80;;;;;;;;;;4993947;28;20224;-73
2021/12/26 09:10:09;;;;;;;7.07;5.57;;;;;;;;;;4993220;28;20172;-74
2021/12/26 09:12:34;;;;;;;7.43;6.13;;;;;;;;;;4992882;28;20255;-74
2021/12/26 09:15:00;;;;;;;9.63;6.10;;;;;;;;;;5007843;28;20299;-74
2021/12/26 09:17:25;;;;;;;9.40;7.30;;;;;;;;;;4994866;28;20180;-74
2021/12/26 09:19:50;;;;;;;10.33;5.87;;;;;;;;;;4993851;28;20519;-74
2021/12/26 09:22:17;;;;;;;8.80;5.77;;;;;;;;;;4992233;28;20295;-73
2021/12/26 09:24:43;;;;;;;8.27;5.30;;;;;;;;;;4994604;28;20231;-74
2021/12/26 09:27:08;;;;;;;9.83;6.33;;;;;;;;;;4993690;28;20184;-74
2021/12/26 09:29:34;;;;;;;8.13;5.20;;;;;;;;;;5010710;28;20168;-74
2021/12/26 09:32:02;;;;;;;6.37;4.90;;;;;;;;;;5006876;28;20172;-74
2021/12/26 09:34:29;;;;;;;8.90;4.97;;;;;;;;;;4992184;28;20193;-74
2021/12/26 09:36:55;;;;;;;8.80;6.17;;;;;;;;;;4988149;28;20548;-74
2021/12/26 09:39:21;;;;;;;8.73;6.37;;;;;;;;;;4992870;28;20194;-74
2021/12/26 09:41:47;;;;;;;7.93;4.93;;;;;;;;;;4992141;28;20188;-73
2021/12/26 09:44:12;;;;;;;11.63;8.33;;;;;;;;;;4991357;28;20241;-74
2021/12/26 09:46:37;;;;;;;7.13;4.23;;;;;;;;;;4989281;28;20241;-74
2021/12/26 09:49:03;;;;;;;8.20;5.70;;;;;;;;;;4992257;28;20176;-73
2021/12/26 09:51:28;;;;;;;7.77;5.43;;;;;;;;;;4994302;28;20187;-74
2021/12/26 09:53:54;;;;;;;9.03;4.90;;;;;;;;;;4994726;28;20275;-73
2021/12/26 09:56:19;;;;;;;7.87;4.73;;;;;;;;;;4991189;28;20176;-74
2021/12/26 09:59:00;;;;;;;7.73;5.23;;;;;;;;;;4991298;28;20554;-74
2021/12/26 10:01:44;;;;;;;12.53;7.90;;;;;;;;;;4988549;28;20184;-74
2021/12/26 10:04:29;;;;;;;11.03;6.13;;;;;;;;;;4986295;28;20228;-74
2021/12/26 10:07:00;;;;;;;8.80;5.20;;;;;;;;;;4990332;28;20184;-74
2021/12/26 10:09:25;;;;;;;10.83;5.47;;;;;;;;;;4994272;28;20198;-73
2021/12/26 10:11:52;;;;;;;8.33;5.30;;;;;;;;;;4992052;28;20541;-74
2021/12/26 10:14:18;;;;;;;6.67;5.43;;;;;;;;;;4996685;28;20273;-74
2021/12/26 10:16:44;;;;;;;9.00;6.33;;;;;;;;;;4991064;28;20185;-74
2021/12/26 10:19:10;;;;;;;8.83;6.70;;;;;;;;;;5003449;28;20217;-74
2021/12/26 10:21:35;;;;;;;8.00;6.07;;;;;;;;;;4991260;28;20189;-74
2021/12/26 10:24:01;;;;;;;12.17;5.97;;;;;;;;;;4991056;28;20201;-74
2021/12/26 10:26:31;;;;;;;12.48;6.97;;;;;;;;;;5004600;28;20192;-74
2021/12/26 10:29:23;;;;;;;11.97;6.70;;;;;;;;;;4989479;28;20239;-74
2021/12/26 10:32:03;;;;;;;11.63;6.37;;;;;;;;;;4990085;28;20214;-73
2021/12/26 10:34:30;;;;;;;11.83;6.97;;;;;;;;;;4990429;28;20204;-74
2021/12/26 10:36:56;;;;;;;11.43;6.20;;;;;;;;;;4991082;28;20193;-74
2021/12/26 10:39:32;;;;;;;11.57;7.07;;;;;;;;;;4988265;28;20189;-74
2021/12/26 10:41:59;;;;;;;8.10;5.53;;;;;;;;;;4991873;28;20204;-73
2021/12/26 10:44:26;;;;;;;7.80;5.07;;;;;;;;;;4990814;28;20228;-74
2021/12/26 10:46:53;;;;;;;6.77;5.70;;;;;;;;;;4990957;28;20250;-74
2021/12/26 10:49:26;;;;;;;6.30;4.93;;;;;;;;;;4993026;28;20444;-74
2021/12/26 10:51:52;;;;;;;8.83;6.10;;;;;;;;;;4990002;28;20245;-74
2021/12/26 10:54:18;;;;;;;11.47;6.17;;;;;;;;;;4990393;28;20258;-74
2021/12/26 10:57:02;;;;;;;11.07;7.13;;;;;;;;;;4991246;28;20212;-74
2021/12/26 10:59:28;;;;;;;11.83;7.37;;;;;;;;;;5006343;28;20186;-74
2021/12/26 11:01:56;;;;;;;17.80;12.07;;;;;;;;;;4990161;28;20272;-74
2021/12/26 11:04:21;;;;;;;13.20;8.67;;;;;;;;;;4992178;28;20209;-74
2021/12/26 11:06:57;;;;;;;14.17;8.83;;;;;;;;;;4991912;28;20189;-74
2021/12/26 11:09:23;;;;;;;12.97;8.33;;;;;;;;;;5010504;28;20241;-74
2021/12/26 11:11:59;;;;;;;16.73;8.73;;;;;;;;;;4983352;28;20181;-74
2021/12/26 11:14:24;;;;;;;10.93;7.17;;;;;;;;;;4994348;28;20185;-74
2021/12/26 11:16:50;;;;;;;11.17;8.33;;;;;;;;;;4992297;28;20186;-74
2021/12/26 11:19:15;;;;;;;14.07;8.53;;;;;;;;;;4993849;28;20184;-74
2021/12/26 11:21:41;;;;;;;14.47;8.43;;;;;;;;;;4990329;28;20214;-74
2021/12/26 11:24:06;;;;;;;11.83;7.07;;;;;;;;;;4990389;28;20198;-74
2021/12/26 11:26:31;;;;;;;17.10;8.60;;;;;;;;;;4989357;28;20251;-74
2021/12/26 11:28:57;;;;;;;14.73;8.63;;;;;;;;;;5011526;28;20240;-74
2021/12/26 11:31:27;;;;;;;13.47;8.20;;;;;;;;;;4993770;28;20195;-74
2021/12/26 11:33:56;;;;;;;17.80;11.40;;;;;;;;;;4991829;28;20184;-74
2021/12/26 11:36:22;;;;;;;16.83;11.83;;;;;;;;;;4995366;28;20189;-74
2021/12/26 11:38:47;;;;;;;17.13;8.70;;;;;;;;;;4992759;28;20178;-74
2021/12/26 11:41:20;;;;;;;17.47;9.40;;;;;;;;;;4991158;28;20177;-74
2021/12/26 11:43:54;;;;;;;15.33;8.27;;;;;;;;;;4990371;28;20304;-74
2021/12/26 11:46:28;;;;;;;15.63;9.23;;;;;;;;;;5003983;28;20207;-74
2021/12/26 11:49:12;;;;;;;12.60;7.93;;;;;;;;;;4991433;28;20168;-74
2021/12/26 11:51:40;;;;;;;15.07;8.47;;;;;;;;;;5006512;28;20182;-74
2021/12/26 11:54:05;;;;;;;15.20;9.57;;;;;;;;;;4993185;28;20180;-74
2021/12/26 11:56:49;;;;;;;10.02;8.35;;;;;;;;;;4991369;28;20620;-74
2021/12/26 11:59:14;;;;;;;12.43;8.07;;;;;;;;;;4991577;28;20223;-74
2021/12/26 12:01:41;;;;;;;12.33;7.17;;;;;;;;;;4995871;28;20273;-74
2021/12/26 12:04:18;;;;;;;10.27;6.83;;;;;;;;;;4993742;28;20229;-74
2021/12/26 12:06:45;;;;;;;14.27;8.03;;;;;;;;;;4993542;28;20229;-74
2021/12/26 12:09:30;;;;;;;11.53;7.87;;;;;;;;;;4995488;28;20174;-74
2021/12/26 12:12:00;;;;;;;10.83;6.87;;;;;;;;;;4992769;28;20190;-74
2021/12/26 12:14:43;;;;;;;15.20;11.77;;;;;;;;;;4994558;28;20489;-74
2021/12/26 12:17:17;;;;;;;9.60;6.83;;;;;;;;;;4991764;28;20180;-74
2021/12/26 12:20:01;;;;;;;10.13;6.70;;;;;;;;;;4993188;28;20195;-74
2021/12/26 12:22:26;;;;;;;11.20;6.23;;;;;;;;;;4993863;28;20204;-73
2021/12/26 12:24:52;;;;;;;12.70;8.00;;;;;;;;;;4995798;28;20204;-74
2021/12/26 12:27:20;;;;;;;9.27;6.67;;;;;;;;;;4992580;28;20207;-74
2021/12/26 12:29:50;;;;;;;13.37;8.50;;;;;;;;;;4992712;28;20186;-74
2021/12/26 12:32:20;;;;;;;10.63;7.30;;;;;;;;;;4994148;28;20168;-74
2021/12/26 12:34:51;;;;;;;14.83;8.57;;;;;;;;;;4994849;28;20188;-74
2021/12/26 12:37:26;;;;;;;14.47;8.07;;;;;;;;;;4993087;28;20217;-74
2021/12/26 12:40:06;;;;;;;11.90;8.43;;;;;;;;;;5009799;28;20196;-73
2021/12/26 12:42:32;;;;;;;12.73;7.93;;;;;;;;;;5008361;28;20303;-74
2021/12/26 12:44:58;;;;;;;11.37;6.87;;;;;;;;;;4994184;28;20232;-74
2021/12/26 12:47:24;;;;;;;10.63;6.67;;;;;;;;;;4992532;28;20180;-74
2021/12/26 12:49:52;;;;;;;9.87;6.20;;;;;;;;;;4992714;28;20181;-74
2021/12/26 12:52:39;;;;;;;12.93;7.67;;;;;;;;;;4992716;28;20187;-74
2021/12/26 12:55:27;;;;;;;9.40;5.97;;;;;;;;;;5003856;28;20200;-74
2021/12/26 12:57:53;;;;;;;11.77;6.47;;;;;;;;;;4994315;28;20208;-74
2021/12/26 13:00:24;;;;;;;8.90;6.57;;;;;;;;;;4996184;28;20260;-74
2021/12/26 13:02:57;;;;;;;14.57;8.00;;;;;;;;;;4991528;28;20320;-74
2021/12/26 13:05:41;;;;;;;10.80;7.20;;;;;;;;;;4992950;28;20296;-73
2021/12/26 13:08:08;;;;;;;9.93;7.07;;;;;;;;;;4990342;28;20179;-74
2021/12/26 13:10:34;;;;;;;13.43;9.70;;;;;;;;;;4993790;28;20190;-74
2021/12/26 13:13:20;;;;;;;12.63;7.60;;;;;;;;;;4992372;28;20265;-74
2021/12/26 13:16:05;;;;;;;10.40;6.53;;;;;;;;;;4996133;28;20251;-74
2021/12/26 13:18:32;;;;;;;8.87;6.70;;;;;;;;;;4991666;28;20210;-74
2021/12/26 13:20:59;;;;;;;9.13;6.67;;;;;;;;;;4992503;28;20226;-74
2021/12/26 13:23:25;;;;;;;11.60;7.83;;;;;;;;;;4991244;28;20218;-73
2021/12/26 13:25:51;;;;;;;15.93;9.27;;;;;;;;;;4989415;28;20208;-73
2021/12/26 13:28:18;;;;;;;11.10;6.97;;;;;;;;;;4992006;28;20182;-74
2021/12/26 13:30:45;;;;;;;11.37;7.17;;;;;;;;;;4992209;28;20231;-74
2021/12/26 13:33:21;;;;;;;13.77;8.13;;;;;;;;;;4990216;28;20185;-74
2021/12/26 13:35:47;;;;;;;19.00;8.33;;;;;;;;;;5008010;28;20258;-74
2021/12/26 13:38:12;;;;;;;12.03;8.33;;;;;;;;;;4994250;28;20300;-74
2021/12/26 13:40:40;;;;;;;21.93;8.07;;;;;;;;;;4992261;28;20185;-74
2021/12/26 13:43:06;;;;;;;16.37;7.17;;;;;;;;;;4995041;28;20215;-74
2021/12/26 13:45:37;;;;;;;19.33;7.53;;;;;;;;;;4996725;28;20237;-74
2021/12/26 13:48:02;;;;;;;16.00;7.30;;;;;;;;;;4992721;28;20211;-74
2021/12/26 13:50:27;;;;;;;25.80;8.10;;;;;;;;;;4991544;28;20209;-74
2021/12/26 13:53:00;;;;;;;34.20;8.23;;;;;;;;;;4991969;28;20177;-74
2021/12/26 13:55:26;;;;;;;13.37;7.17;;;;;;;;;;4996694;28;20184;-74
2021/12/26 13:58:01;;;;;;;19.13;7.70;;;;;;;;;;4989898;28;20195;-74
2021/12/26 14:00:26;;;;;;;46.50;9.03;;;;;;;;;;4994415;28;20189;-74
2021/12/26 14:02:51;;;;;;;23.63;10.33;;;;;;;;;;4994282;28;20248;-74
2021/12/26 14:05:18;;;;;;;10.37;7.27;;;;;;;;;;4991924;28;20208;-74
2021/12/26 14:07:49;;;;;;;8.50;7.30;;;;;;;;;;4995081;28;20182;-74
2021/12/26 14:10:19;;;;;;;10.20;6.30;;;;;;;;;;4991390;28;20212;-74
2021/12/26 14:12:57;;;;;;;7.73;6.20;;;;;;;;;;4990326;28;20239;-74
2021/12/26 14:15:31;;;;;;;9.90;6.50;;;;;;;;;;4989859;28;20184;-73
2021/12/26 14:18:00;;;;;;;9.23;6.70;;;;;;;;;;4991889;28;20204;-74
2021/12/26 14:20:26;;;;;;;8.80;6.80;;;;;;;;;;4990883;28;20211;-74
2021/12/26 14:22:52;;;;;;;7.30;5.67;;;;;;;;;;4994257;28;20187;-74
2021/12/26 14:25:17;;;;;;;7.97;6.13;;;;;;;;;;4993851;28;20287;-73
2021/12/26 14:27:44;;;;;;;7.03;6.43;;;;;;;;;;4990987;28;20203;-74
2021/12/26 14:30:10;;;;;;;6.40;5.50;;;;;;;;;;4987837;28;20264;-74
2021/12/26 14:32:37;;;;;;;6.30;5.70;;;;;;;;;;4995083;28;20292;-74
2021/12/26 14:35:03;;;;;;;6.70;5.33;;;;;;;;;;4999691;28;20188;-73
2021/12/26 14:37:28;;;;;;;7.23;6.40;;;;;;;;;;4991579;28;20189;-74
2021/12/26 14:39:55;;;;;;;6.30;5.30;;;;;;;;;;5008123;28;20272;-74
2021/12/26 14:42:22;;;;;;;6.20;5.60;;;;;;;;;;4995422;28;20207;-74
2021/12/26 14:44:56;;;;;;;5.83;5.07;;;;;;;;;;4995149;28;20325;-74